createdAt,value
2022-08-07T00:02:39.679Z,99.90
2022-08-07T00:05:01.595Z,99.90
2022-08-07T00:07:36.870Z,99.90
2022-08-07T00:10:27.171Z,99.90
2022-08-07T00:13:03.249Z,99.90
2022-08-07T00:15:46.690Z,99.90
2022-08-07T00:18:24.249Z,99.90
2022-08-07T00:21:03.450Z,99.90
2022-08-07T00:23:40.143Z,99.90
2022-08-07T00:26:13.227Z,99.90
2022-08-07T00:28:58.825Z,99.90
2022-08-07T00:34:09.823Z,99.90
2022-08-07T00:36:43.084Z,99.90
2022-08-07T00:39:16.621Z,99.90
2022-08-07T00:42:05.036Z,99.90
2022-08-07T00:44:34.888Z,99.90
2022-08-07T00:47:03.962Z,99.90
2022-08-07T00:52:22.695Z,99.90
2022-08-07T00:54:53.784Z,99.90
2022-08-07T00:57:23.410Z,99.90
2022-08-07T00:59:54.337Z,99.90
2022-08-07T01:04:53.265Z,99.90
2022-08-07T01:07:27.616Z,99.90
2022-08-07T01:12:53.562Z,99.90
2022-08-07T01:15:35.960Z,99.90
2022-08-07T01:18:17.026Z,99.90
2022-08-07T01:20:57.228Z,99.90
2022-08-07T01:23:38.028Z,99.90
2022-08-07T01:26:12.084Z,99.90
2022-08-07T01:28:46.269Z,99.90
2022-08-07T01:31:27.965Z,99.90
2022-08-07T01:34:13.036Z,99.90
2022-08-07T01:36:44.062Z,99.90
2022-08-07T01:39:17.513Z,99.90
2022-08-07T01:42:01.642Z,99.90
2022-08-07T01:44:42.481Z,99.90
2022-08-07T01:48:18.212Z,99.90
2022-08-07T01:50:06.265Z,99.90
2022-08-07T01:52:36.857Z,99.90
2022-08-07T01:58:06.943Z,99.90
2022-08-07T02:00:32.074Z,99.90
2022-08-07T02:03:18.434Z,99.90
2022-08-07T02:06:02.662Z,99.90
2022-08-07T02:08:54.349Z,99.90
2022-08-07T02:11:30.861Z,99.90
2022-08-07T02:14:36.366Z,99.90
2022-08-07T02:17:03.695Z,99.90
2022-08-07T02:20:07.360Z,99.90
2022-08-07T02:22:25.835Z,99.90
2022-08-07T02:24:57.436Z,99.90
2022-08-07T02:27:34.812Z,99.90
2022-08-07T02:30:07.115Z,99.90
2022-08-07T02:32:39.556Z,99.90
2022-08-07T02:36:29.323Z,99.90
2022-08-07T02:38:16.834Z,99.90
2022-08-07T02:40:55.524Z,99.90
2022-08-07T02:43:26.470Z,99.90
2022-08-07T02:46:02.012Z,99.90
2022-08-07T02:51:14.287Z,99.90
2022-08-07T02:54:00.091Z,99.90
2022-08-07T02:56:32.572Z,99.90
2022-08-07T02:59:04.115Z,99.90
2022-08-07T03:01:40.223Z,99.90
2022-08-07T03:04:14.287Z,99.90
2022-08-07T03:06:46.143Z,99.90
2022-08-07T03:09:43.512Z,99.90
2022-08-07T03:14:52.744Z,99.90
2022-08-07T03:17:22.097Z,99.90
2022-08-07T03:22:29.666Z,99.90
2022-08-07T03:25:00.304Z,99.90
2022-08-07T03:27:58.803Z,99.90
2022-08-07T03:35:43.674Z,99.90
2022-08-07T03:38:21.267Z,99.90
2022-08-07T03:41:01.439Z,99.90
2022-08-07T03:43:33.738Z,99.90
2022-08-07T03:46:10.336Z,99.90
2022-08-07T03:51:47.372Z,99.90
2022-08-07T03:54:35.858Z,99.90
2022-08-07T03:58:35.020Z,99.90
2022-08-07T04:00:02.635Z,99.90
2022-08-07T04:02:47.258Z,99.90
2022-08-07T04:05:40.871Z,99.90
2022-08-07T04:08:20.870Z,99.90
2022-08-07T04:10:53.845Z,99.90
2022-08-07T04:14:10.055Z,99.90
2022-08-07T04:16:31.265Z,99.90
2022-08-07T04:19:12.674Z,99.90
2022-08-07T04:21:59.516Z,99.90
2022-08-07T04:24:39.135Z,99.90
2022-08-07T04:27:15.311Z,99.90
2022-08-07T04:30:02.611Z,99.90
2022-08-07T04:32:48.736Z,99.90
2022-08-07T04:35:27.358Z,99.90
2022-08-07T04:38:11.548Z,99.90
2022-08-07T04:40:52.449Z,99.90
2022-08-07T04:44:11.964Z,99.90
2022-08-07T04:46:29.439Z,99.90
2022-08-07T04:49:28.035Z,99.90
2022-08-07T04:52:51.153Z,99.90
2022-08-07T04:58:10.237Z,99.90
2022-08-07T04:58:49.650Z,99.90
2022-08-07T05:01:39.063Z,99.90
2022-08-07T05:04:21.041Z,99.90
2022-08-07T05:07:30.411Z,99.90
2022-08-07T05:10:35.596Z,99.90
2022-08-07T05:14:52.713Z,99.90
2022-08-07T05:16:10.581Z,99.90
2022-08-07T05:18:45.540Z,99.90
2022-08-07T05:21:18.430Z,99.90
2022-08-07T05:24:11.954Z,99.90
2022-08-07T05:26:41.605Z,99.90
2022-08-07T05:29:17.035Z,99.90
2022-08-07T05:31:52.849Z,99.90
2022-08-07T05:34:27.588Z,99.90
2022-08-07T05:36:56.791Z,99.90
2022-08-07T05:40:05.473Z,99.90
2022-08-07T05:42:33.693Z,99.90
2022-08-07T05:45:25.908Z,99.90
2022-08-07T05:48:03.794Z,99.90
2022-08-07T05:50:45.108Z,99.90
2022-08-07T05:54:13.221Z,99.90
2022-08-07T05:56:06.802Z,99.90
2022-08-07T05:58:41.540Z,99.90
2022-08-07T06:01:23.716Z,99.90
2022-08-07T06:03:58.830Z,99.90
2022-08-07T06:06:37.411Z,99.90
2022-08-07T06:09:16.931Z,99.90
2022-08-07T06:11:48.031Z,99.90
2022-08-07T06:17:01.244Z,99.90
2022-08-07T06:19:52.143Z,99.90
2022-08-07T06:22:28.570Z,99.90
2022-08-07T06:28:00.467Z,99.90
2022-08-07T06:33:16.876Z,99.90
2022-08-07T06:36:11.915Z,99.90
2022-08-07T06:38:51.601Z,99.90
2022-08-07T06:42:01.708Z,99.90
2022-08-07T06:44:50.941Z,99.90
2022-08-07T06:47:21.145Z,99.90
2022-08-07T06:49:58.767Z,99.90
2022-08-07T06:52:41.987Z,99.90
2022-08-07T06:55:31.951Z,99.90
2022-08-07T06:58:11.053Z,99.90
2022-08-07T07:01:03.737Z,99.90
2022-08-07T07:03:40.095Z,99.90
2022-08-07T07:06:23.975Z,99.90
2022-08-07T07:08:55.252Z,99.90
2022-08-07T07:12:08.256Z,99.90
2022-08-07T07:14:19.383Z,99.90
2022-08-07T07:16:53.531Z,99.90
2022-08-07T07:19:56.513Z,99.90
2022-08-07T07:22:36.805Z,99.90
2022-08-07T07:26:31.206Z,99.90
2022-08-07T07:28:42.825Z,99.90
2022-08-07T07:31:10.837Z,99.90
2022-08-07T07:33:41.165Z,99.90
2022-08-07T07:36:12.720Z,99.90
2022-08-07T07:38:43.540Z,99.90
2022-08-07T07:41:16.856Z,99.90
2022-08-07T07:44:13.808Z,99.90
2022-08-07T07:46:55.329Z,99.90
2022-08-07T07:50:33.454Z,99.90
2022-08-07T07:52:18.227Z,99.90
2022-08-07T07:54:51.470Z,99.90
2022-08-07T07:57:43.814Z,99.90
2022-08-07T08:00:21.212Z,99.90
2022-08-07T08:03:09.452Z,99.90
2022-08-07T08:05:54.577Z,99.90
2022-08-07T08:08:35.313Z,99.90
2022-08-07T08:11:18.103Z,99.90
2022-08-07T08:16:42.741Z,99.90
2022-08-07T08:20:16.053Z,99.90
2022-08-07T08:22:32.968Z,99.90
2022-08-07T08:25:42.035Z,99.90
2022-08-07T08:28:16.691Z,99.90
2022-08-07T08:31:00.659Z,99.90
2022-08-07T08:33:34.178Z,99.90
2022-08-07T08:36:03.559Z,99.90
2022-08-07T08:38:41.106Z,99.90
2022-08-07T08:41:25.713Z,99.90
2022-08-07T08:44:15.193Z,99.90
2022-08-07T08:46:48.962Z,99.90
2022-08-07T08:50:02.508Z,99.90
2022-08-07T08:52:53.780Z,99.90
2022-08-07T08:55:53.127Z,99.90
2022-08-07T08:58:47.644Z,99.90
2022-08-07T09:01:29.538Z,99.90
2022-08-07T09:04:28.619Z,99.90
2022-08-07T09:07:11.229Z,99.90
2022-08-07T09:09:58.607Z,99.90
2022-08-07T09:13:09.459Z,99.90
2022-08-07T09:16:23.809Z,99.90
2022-08-07T09:19:50.768Z,99.90
2022-08-07T09:24:31.729Z,99.90
2022-08-07T09:25:18.132Z,99.90
2022-08-07T09:30:07.422Z,99.90
2022-08-07T09:31:20.390Z,99.90
2022-08-07T09:34:13.330Z,99.90
2022-08-07T09:36:50.097Z,99.90
2022-08-07T09:39:53.169Z,99.90
2022-08-07T09:42:23.072Z,99.90
2022-08-07T09:47:25.465Z,99.90
2022-08-07T09:48:19.945Z,99.90
2022-08-07T09:50:56.725Z,99.90
2022-08-07T09:53:41.412Z,99.90
2022-08-07T09:56:39.308Z,99.90
2022-08-07T09:59:46.427Z,99.90
2022-08-07T10:02:57.124Z,99.90
2022-08-07T10:05:59.133Z,99.90
2022-08-07T10:09:02.608Z,99.90
2022-08-07T10:12:01.661Z,99.90
2022-08-07T10:14:54.218Z,99.90
2022-08-07T10:18:01.370Z,99.90
2022-08-07T10:20:51.851Z,99.90
2022-08-07T10:24:08.611Z,99.90
2022-08-07T10:26:54.898Z,99.90
2022-08-07T10:29:38.432Z,99.90
2022-08-07T10:32:51.301Z,99.90
2022-08-07T10:35:55.381Z,99.90
2022-08-07T10:38:54.169Z,99.90
2022-08-07T10:41:46.409Z,99.90
2022-08-07T10:44:38.426Z,99.90
2022-08-07T10:47:17.003Z,99.90
2022-08-07T10:49:56.516Z,99.90
2022-08-07T10:52:33.915Z,99.90
2022-08-07T10:55:36.822Z,99.90
2022-08-07T10:58:48.225Z,99.90
2022-08-07T11:01:51.104Z,99.90
2022-08-07T11:04:51.911Z,99.90
2022-08-07T11:07:59.684Z,99.90
2022-08-07T11:10:35.180Z,99.90
2022-08-07T11:14:46.137Z,99.90
2022-08-07T11:16:48.004Z,99.90
2022-08-07T11:19:38.442Z,99.90
2022-08-07T11:22:36.143Z,99.90
2022-08-07T11:28:55.338Z,99.90
2022-08-07T11:31:35.554Z,99.90
2022-08-07T11:34:22.103Z,99.90
2022-08-07T11:37:06.831Z,99.90
2022-08-07T11:40:03.471Z,99.90
2022-08-07T11:43:09.186Z,99.90
2022-08-07T11:46:12.778Z,99.90
2022-08-07T11:49:51.068Z,99.90
2022-08-07T11:51:58.886Z,99.90
2022-08-07T11:54:54.634Z,99.90
2022-08-07T11:57:58.032Z,99.90
2022-08-07T12:00:21.209Z,99.90
2022-08-07T12:03:41.482Z,99.90
2022-08-07T12:06:38.901Z,99.90
2022-08-07T12:09:37.202Z,99.90
2022-08-07T12:12:11.985Z,99.90
2022-08-07T12:15:08.188Z,99.90
2022-08-07T12:18:11.478Z,99.90
2022-08-07T12:20:49.212Z,99.90
2022-08-07T12:24:05.940Z,99.90
2022-08-07T12:26:46.842Z,99.90
2022-08-07T12:29:37.954Z,99.90
2022-08-07T12:32:28.417Z,99.90
2022-08-07T12:34:58.811Z,99.90
2022-08-07T12:38:09.244Z,99.90
2022-08-07T12:40:46.519Z,99.90
2022-08-07T12:44:01.316Z,99.90
2022-08-07T12:46:15.852Z,99.90
2022-08-07T12:49:48.495Z,99.90
2022-08-07T12:52:19.235Z,99.90
2022-08-07T12:54:54.224Z,99.90
2022-08-07T12:57:38.729Z,99.90
2022-08-07T13:00:16.420Z,99.90
2022-08-07T13:03:52.794Z,99.90
2022-08-07T13:06:54.273Z,99.90
2022-08-07T13:10:19.994Z,99.90
2022-08-07T13:13:11.153Z,99.90
2022-08-07T13:16:32.895Z,99.70
2022-08-07T13:19:21.645Z,99.70
2022-08-07T13:22:12.657Z,99.90
2022-08-07T13:25:24.266Z,99.90
2022-08-07T13:28:13.849Z,98.60
2022-08-07T13:31:13.478Z,98.80
2022-08-07T13:34:34.325Z,98.30
2022-08-07T13:36:59.564Z,98.40
2022-08-07T13:40:33.320Z,98.60
2022-08-07T13:42:37.580Z,97.60
2022-08-07T13:45:20.754Z,97.60
2022-08-07T13:48:07.745Z,98.60
2022-08-07T13:50:45.179Z,98.70
2022-08-07T13:53:59.786Z,98.50
2022-08-07T13:56:35.639Z,96.60
2022-08-07T13:59:13.197Z,98.50
2022-08-07T14:01:50.988Z,97.90
2022-08-07T14:04:29.773Z,96.60
2022-08-07T14:07:09.200Z,96.80
2022-08-07T14:10:00.659Z,95.50
2022-08-07T14:12:57.475Z,95.20
2022-08-07T14:15:31.746Z,94.70
2022-08-07T14:18:29.170Z,95.00
2022-08-07T14:22:00.995Z,95.10
2022-08-07T14:24:04.070Z,95.40
2022-08-07T14:26:50.069Z,94.10
2022-08-07T14:30:09.345Z,94.30
2022-08-07T14:32:12.676Z,94.50
2022-08-07T14:34:45.684Z,93.70
2022-08-07T14:37:18.159Z,94.30
2022-08-07T14:40:16.565Z,93.20
2022-08-07T14:43:55.204Z,92.90
2022-08-07T14:45:46.643Z,93.20
2022-08-07T14:48:21.083Z,92.70
2022-08-07T14:50:54.721Z,92.90
2022-08-07T14:56:30.389Z,92.30
2022-08-07T14:59:04.556Z,90.60
2022-08-07T15:01:51.525Z,91.00
2022-08-07T15:07:17.735Z,90.80
2022-08-07T15:12:44.032Z,90.70
2022-08-07T15:13:06.179Z,91.40
2022-08-07T15:15:42.131Z,91.60
2022-08-07T15:18:33.552Z,91.20
2022-08-07T15:21:08.266Z,91.50
2022-08-07T15:25:12.690Z,91.50
2022-08-07T15:26:44.520Z,91.60
2022-08-07T15:30:08.582Z,91.20
2022-08-07T15:32:07.253Z,91.60
2022-08-07T15:34:50.626Z,90.60
2022-08-07T15:38:04.613Z,91.40
2022-08-07T15:43:53.585Z,90.60
2022-08-07T15:46:31.192Z,90.90
2022-08-07T15:49:13.330Z,91.00
2022-08-07T15:54:34.111Z,90.80
2022-08-07T15:57:04.996Z,90.20
2022-08-07T15:59:39.858Z,89.60
2022-08-07T16:02:25.634Z,90.10
2022-08-07T16:05:00.971Z,89.20
2022-08-07T16:08:31.347Z,89.60
2022-08-07T16:10:30.467Z,88.10
2022-08-07T16:13:57.555Z,87.10
2022-08-07T16:16:48.446Z,85.40
2022-08-07T16:19:42.769Z,85.80
2022-08-07T16:22:54.998Z,85.80
2022-08-07T16:25:52.387Z,84.40
2022-08-07T16:30:05.889Z,82.30
2022-08-07T16:31:51.329Z,81.10
2022-08-07T16:34:48.335Z,83.10
2022-08-07T16:38:03.681Z,84.20
2022-08-07T16:40:57.108Z,83.80
2022-08-07T16:44:05.887Z,84.30
2022-08-07T16:47:05.642Z,86.20
2022-08-07T16:50:20.740Z,86.70
2022-08-07T16:54:01.271Z,87.40
2022-08-07T16:56:37.251Z,87.90
2022-08-07T16:59:24.120Z,87.40
2022-08-07T17:02:51.662Z,88.10
2022-08-07T17:06:02.119Z,87.00
2022-08-07T17:08:10.962Z,86.70
2022-08-07T17:10:54.383Z,86.50
2022-08-07T17:14:18.608Z,86.90
2022-08-07T17:16:55.485Z,86.10
2022-08-07T17:20:02.033Z,86.60
2022-08-07T17:22:45.810Z,85.80
2022-08-07T17:25:19.272Z,86.00
2022-08-07T17:28:11.479Z,84.60
2022-08-07T17:31:16.020Z,85.50
2022-08-07T17:34:18.323Z,84.90
2022-08-07T17:37:00.029Z,85.80
2022-08-07T17:40:08.114Z,86.60
2022-08-07T17:42:59.214Z,87.00
2022-08-07T17:45:35.182Z,87.60
2022-08-07T17:48:15.734Z,88.00
2022-08-07T17:51:24.571Z,89.10
2022-08-07T17:54:29.577Z,89.20
2022-08-07T17:57:19.197Z,89.40
2022-08-07T17:59:59.841Z,90.40
2022-08-07T18:03:09.231Z,90.70
2022-08-07T18:06:03.280Z,90.90
2022-08-07T18:09:01.205Z,91.10
2022-08-07T18:12:12.038Z,91.00
2022-08-07T18:14:46.158Z,91.30
2022-08-07T18:18:45.957Z,92.00
2022-08-07T18:21:07.959Z,92.70
2022-08-07T18:24:08.999Z,92.60
2022-08-07T18:26:40.472Z,93.00
2022-08-07T18:30:06.080Z,93.10
2022-08-07T18:33:10.435Z,93.30
2022-08-07T18:36:01.302Z,93.60
2022-08-07T18:40:08.862Z,94.10
2022-08-07T18:42:12.771Z,94.70
2022-08-07T18:45:43.640Z,94.80
2022-08-07T18:50:05.225Z,94.80
2022-08-07T18:52:25.462Z,94.70
2022-08-07T18:54:30.624Z,95.20
2022-08-07T18:57:43.997Z,95.90
2022-08-07T19:00:54.123Z,97.00
2022-08-07T19:03:37.496Z,98.30
2022-08-07T19:06:16.599Z,99.20
2022-08-07T19:09:09.001Z,99.90
2022-08-07T19:12:18.086Z,99.90
2022-08-07T19:16:02.500Z,99.90
2022-08-07T19:18:34.647Z,99.90
2022-08-07T19:21:47.466Z,99.90
2022-08-07T19:24:30.980Z,99.90
2022-08-07T19:28:30.058Z,99.90
2022-08-07T19:31:02.237Z,99.90
2022-08-07T19:33:10.091Z,99.90
2022-08-07T19:35:46.693Z,99.90
2022-08-07T19:38:17.798Z,99.90
2022-08-07T19:40:50.781Z,99.90
2022-08-07T19:43:44.145Z,99.90
2022-08-07T19:46:17.855Z,99.90
2022-08-07T19:48:53.647Z,99.90
2022-08-07T19:51:51.034Z,99.90
2022-08-07T19:54:33.413Z,99.90
2022-08-07T19:58:03.260Z,99.90
2022-08-07T20:00:01.894Z,99.90
2022-08-07T20:02:39.187Z,99.90
2022-08-07T20:05:12.335Z,99.90
2022-08-07T20:07:46.418Z,99.90
2022-08-07T20:10:35.952Z,99.90
2022-08-07T20:13:32.964Z,99.90
2022-08-07T20:16:03.712Z,99.90
2022-08-07T20:18:35.042Z,99.90
2022-08-07T20:21:21.144Z,99.90
2022-08-07T20:23:57.955Z,99.90
2022-08-07T20:26:38.985Z,99.90
2022-08-07T20:29:49.293Z,99.90
2022-08-07T20:32:11.603Z,99.90
2022-08-07T20:34:53.936Z,99.90
2022-08-07T20:37:34.085Z,99.90
2022-08-07T20:40:33.191Z,99.90
2022-08-07T20:42:57.710Z,99.90
2022-08-07T20:46:24.678Z,99.90
2022-08-07T20:48:28.455Z,99.90
2022-08-07T20:50:58.775Z,99.90
2022-08-07T20:54:04.368Z,99.90
2022-08-07T20:56:25.817Z,99.90
2022-08-07T20:58:58.836Z,99.90
2022-08-07T21:01:29.852Z,99.90
2022-08-07T21:04:22.586Z,99.90
2022-08-07T21:06:56.809Z,99.90
2022-08-07T21:09:42.828Z,99.90
2022-08-07T21:12:28.614Z,99.90
2022-08-07T21:15:02.384Z,99.90
2022-08-07T21:18:03.121Z,99.90
2022-08-07T21:20:26.683Z,99.90
2022-08-07T21:23:07.686Z,99.90
2022-08-07T21:26:18.036Z,99.90
2022-08-07T21:29:00.511Z,99.90
2022-08-07T21:32:44.146Z,99.90
2022-08-07T21:34:51.020Z,99.90
2022-08-07T21:37:57.871Z,99.90
2022-08-07T21:40:49.651Z,99.90
2022-08-07T21:43:23.381Z,99.90
2022-08-07T21:46:31.638Z,99.90
2022-08-07T21:49:15.133Z,99.90
2022-08-07T21:51:55.827Z,99.90
2022-08-07T21:54:30.077Z,99.90
2022-08-07T21:57:39.612Z,99.90
2022-08-07T22:00:23.041Z,99.90
2022-08-07T22:03:16.745Z,99.90
2022-08-07T22:06:00.784Z,99.90
2022-08-07T22:08:44.290Z,99.90
2022-08-07T22:11:17.709Z,99.90
2022-08-07T22:13:51.900Z,99.90
2022-08-07T22:16:56.623Z,99.90
2022-08-07T22:19:33.061Z,99.90
2022-08-07T22:22:27.596Z,99.90
2022-08-07T22:25:03.390Z,99.90
2022-08-07T22:28:08.349Z,99.90
2022-08-07T22:31:05.151Z,99.90
2022-08-07T22:33:56.299Z,99.90
2022-08-07T22:36:47.900Z,99.90
2022-08-07T22:39:52.623Z,99.90
2022-08-07T22:42:29.555Z,99.90
2022-08-07T22:45:03.509Z,99.90
2022-08-07T22:47:41.673Z,99.90
2022-08-07T22:50:20.918Z,99.90
2022-08-07T22:54:07.477Z,99.90
2022-08-07T22:57:17.094Z,99.90
2022-08-07T22:59:52.020Z,99.90
2022-08-07T23:02:31.511Z,99.90
2022-08-07T23:06:08.527Z,99.90
2022-08-07T23:08:30.378Z,99.90
2022-08-07T23:11:13.847Z,99.90
2022-08-07T23:14:16.757Z,99.90
2022-08-07T23:17:15.931Z,99.90
2022-08-07T23:20:40.229Z,99.90
2022-08-07T23:24:05.824Z,99.90
2022-08-07T23:26:59.567Z,99.90
2022-08-07T23:30:39.170Z,99.90
2022-08-07T23:34:34.162Z,99.90
2022-08-07T23:36:28.861Z,99.90
2022-08-07T23:39:17.691Z,99.90
2022-08-07T23:42:37.200Z,99.90
2022-08-07T23:45:33.487Z,99.90
2022-08-07T23:48:47.103Z,99.90
2022-08-07T23:52:59.450Z,99.90
2022-08-07T23:54:52.787Z,99.90
2022-08-07T23:57:41.701Z,99.90
